Terminal Aerodrome Forecast
Issued by NWS Charleston, WV

Current Version | Previous Version | Text Only | Print | Product List | Glossary Off
Versions: 1 2 3 4 5 6 7 8 9 10 11 12 13 14 15 16 17 18 19 20 21 22

000
FTUS41 KRLX 020224 AAA
TAFBKW
TAF AMD
KBKW 020224Z 0202/0224 00000KT P6SM FEW070
     FM020900 00000KT 6SM BR SKC
     FM021300 29006KT P6SM FEW050=

USA.gov is the U.S. government's official web portal to all federal, state and local government web resources and services.